Time;durP1;ratioP1;P1;durP2;ratioP2;P2;SDS_P1;SDS_P2;PMS_P1;PMS_P2;Temp;Humidity;BMP_temperature;BMP_pressure;BME280_temperature;BME280_humidity;BME280_pressure;Samples;Min_cycle;Max_cycle;Signal;HPM_P1;HPM_P2
2023/07/18 00:00:25;;;;;;;7.60;4.63;;;;;;;11.54;100.00;93686.94;2537403;23;20024;-81
2023/07/18 00:01:35;;;;;;;8.32;4.65;;;;;;;11.46;100.00;93687.50;2559775;23;20451;-79
2023/07/18 00:02:42;;;;;;;;;;;;;;;11.48;100.00;93691.28;2569626;23;20000;-80
2023/07/18 00:03:53;;;;;;;9.68;4.70;;;;;;;11.50;100.00;93690.84;2569325;23;19923;-80
2023/07/18 00:05:04;;;;;;;7.03;4.20;;;;;;;11.46;100.00;93685.56;2555626;23;20074;-80
2023/07/18 00:06:17;;;;;;;12.57;4.75;;;;;;;11.46;100.00;93690.94;2535005;23;20065;-80
2023/07/18 00:07:28;;;;;;;8.32;4.90;;;;;;;11.51;100.00;93687.78;2549498;23;20001;-81
2023/07/18 00:08:36;;;;;;;11.05;4.88;;;;;;;11.43;100.00;93686.38;2545295;23;20005;-79
2023/07/18 00:09:48;;;;;;;11.48;5.30;;;;;;;11.34;100.00;93686.16;2534389;23;20005;-79
2023/07/18 00:11:00;;;;;;;10.60;5.40;;;;;;;11.30;100.00;93691.53;2558238;23;20001;-80
2023/07/18 00:12:14;;;;;;;14.48;4.80;;;;;;;11.20;100.00;93691.72;2545436;23;20112;-81
2023/07/18 00:13:22;;;;;;;9.40;4.95;;;;;;;11.25;100.00;93688.56;2535961;23;20032;-81
2023/07/18 00:14:38;;;;;;;9.93;4.72;;;;;;;11.24;100.00;93685.16;2546686;23;20005;-79
2023/07/18 00:15:53;;;;;;;10.15;4.60;;;;;;;11.27;100.00;93678.97;2559652;23;20040;-79
2023/07/18 00:17:03;;;;;;;10.13;5.40;;;;;;;11.27;100.00;93683.56;2558774;23;20008;-80
2023/07/18 00:18:12;;;;;;;9.73;4.88;;;;;;;11.18;100.00;93683.31;2568379;23;20436;-80
2023/07/18 00:19:23;;;;;;;10.80;4.82;;;;;;;11.10;100.00;93683.41;2569110;23;20225;-80
2023/07/18 00:20:34;;;;;;;12.88;4.70;;;;;;;11.05;100.00;93675.84;2568127;23;20087;-79
2023/07/18 00:21:47;;;;;;;11.68;4.97;;;;;;;11.10;100.00;93677.31;2557726;23;20004;-81
2023/07/18 00:22:57;;;;;;;6.85;4.35;;;;;;;11.13;100.00;93684.53;2557744;23;20374;-81
2023/07/18 00:24:08;;;;;;;9.57;4.65;;;;;;;11.17;100.00;93679.13;2568181;23;20015;-81
2023/07/18 00:25:23;;;;;;;12.98;4.50;;;;;;;11.17;100.00;93679.91;2567768;23;20011;-80
2023/07/18 00:26:35;;;;;;;10.63;4.40;;;;;;;11.22;100.00;93668.72;2567784;23;20005;-80
2023/07/18 00:27:53;;;;;;;8.52;4.47;;;;;;;11.16;100.00;93673.03;2567962;23;20478;-80
2023/07/18 00:29:03;;;;;;;10.30;4.63;;;;;;;11.16;100.00;93673.03;2559871;23;20013;-80
2023/07/18 00:30:17;;;;;;;7.07;4.80;;;;;;;11.06;100.00;93672.03;2568292;23;20007;-81
2023/07/18 00:31:31;;;;;;;9.85;4.75;;;;;;;11.01;100.00;93667.13;2555515;23;20005;-82
2023/07/18 00:32:44;;;;;;;13.38;5.35;;;;;;;10.98;100.00;93672.53;2558872;23;20056;-80
2023/07/18 00:33:56;;;;;;;8.88;4.57;;;;;;;10.95;100.00;93671.41;2558283;23;20008;-80
2023/07/18 00:35:07;;;;;;;9.15;4.70;;;;;;;10.88;100.00;93674.19;2545810;23;20459;-80
2023/07/18 00:36:19;;;;;;;8.55;4.55;;;;;;;10.86;100.00;93668.50;2535113;23;20010;-79
2023/07/18 00:37:31;;;;;;;11.40;4.32;;;;;;;10.90;100.00;93673.78;2547998;23;20017;-82
2023/07/18 00:38:43;;;;;;;10.07;4.57;;;;;;;10.94;100.00;93675.25;2569584;23;20008;-79
2023/07/18 00:39:57;;;;;;;11.88;4.88;;;;;;;10.91;100.00;93672.63;2567990;23;20016;-81
2023/07/18 00:41:12;;;;;;;8.57;4.78;;;;;;;10.82;100.00;93673.88;2558384;23;20004;-81
2023/07/18 00:42:27;;;;;;;8.20;4.68;;;;;;;10.85;100.00;93669.66;2557642;23;20080;-80
2023/07/18 00:43:43;;;;;;;8.93;4.32;;;;;;;10.85;100.00;93669.66;2546398;23;20164;-81
2023/07/18 00:44:57;;;;;;;8.15;4.90;;;;;;;10.89;100.00;93670.38;2549521;23;20040;-80
2023/07/18 00:46:12;;;;;;;10.38;4.45;;;;;;;10.92;100.00;93672.22;2559153;23;20036;-79
2023/07/18 00:47:30;;;;;;;8.45;4.63;;;;;;;10.85;100.00;93669.66;2557605;23;20017;-81
2023/07/18 00:48:45;;;;;;;6.20;4.10;;;;;;;10.81;100.00;93672.38;2559131;23;20339;-80
2023/07/18 00:49:58;;;;;;;9.25;4.38;;;;;;;10.80;100.00;93667.44;2546213;23;20432;-80
2023/07/18 00:51:09;;;;;;;12.10;4.85;;;;;;;10.66;100.00;93668.38;2561049;23;20027;-80
2023/07/18 00:52:21;;;;;;;12.10;4.60;;;;;;;10.66;100.00;93670.28;2568543;23;20052;-82
2023/07/18 00:53:30;;;;;;;11.52;4.88;;;;;;;10.67;100.00;93667.22;2570606;23;20084;-80
2023/07/18 00:54:41;;;;;;;9.60;4.53;;;;;;;10.64;100.00;93665.34;2556410;23;20013;-78
2023/07/18 00:55:51;;;;;;;9.52;4.30;;;;;;;10.67;100.00;93666.44;2557817;23;20024;-81
2023/07/18 00:56:58;;;;;;;;;;;;;;;10.75;100.00;93665.19;2558136;23;20005;-80
2023/07/18 00:58:10;;;;;;;8.38;4.65;;;;;;;10.76;100.00;93664.06;2567707;23;19903;-79
2023/07/18 00:59:27;;;;;;;9.13;4.65;;;;;;;10.79;100.00;93664.00;2568143;23;20058;-80
2023/07/18 01:00:39;;;;;;;8.13;5.03;;;;;;;10.76;100.00;93654.13;2559585;23;20414;-80
2023/07/18 01:01:50;;;;;;;7.47;4.57;;;;;;;10.75;100.00;93657.94;2557801;23;20005;-79
2023/07/18 01:03:01;;;;;;;8.98;4.57;;;;;;;10.74;100.00;93661.00;2557686;23;20009;-79
2023/07/18 01:04:11;;;;;;;7.75;4.65;;;;;;;10.73;100.00;93659.50;2558369;23;20320;-81
2023/07/18 01:05:26;;;;;;;10.98;4.47;;;;;;;10.67;100.00;93650.41;2558448;23;20001;-79
2023/07/18 01:06:35;;;;;;;8.68;4.25;;;;;;;10.63;100.00;93649.72;2556122;23;20083;-81
2023/07/18 01:07:37;;;;;;;8.35;4.03;;;;;;;10.54;100.00;93652.88;2546554;23;20428;-80
2023/07/18 01:08:48;;;;;;;8.00;4.38;;;;;;;10.48;100.00;93660.56;2556052;23;20009;-80
2023/07/18 01:10:17;;;;;;;8.88;4.85;;;;;;;10.45;100.00;93655.31;2568178;23;20005;-80
2023/07/18 01:11:27;;;;;;;11.38;5.22;;;;;;;10.41;100.00;93651.91;2574109;23;20000;-79
2023/07/18 01:12:42;;;;;;;11.75;4.50;;;;;;;10.45;100.00;93649.94;2555640;23;20239;-81
2023/07/18 01:13:49;;;;;;;7.15;4.18;;;;;;;10.55;100.00;93652.47;2558205;23;20009;-81
2023/07/18 01:15:00;;;;;;;8.30;4.20;;;;;;;10.53;100.00;93646.75;2556553;23;20116;-80
2023/07/18 01:16:09;;;;;;;10.25;4.68;;;;;;;10.56;100.00;93653.97;2558160;23;20020;-81
2023/07/18 01:17:23;;;;;;;11.85;4.63;;;;;;;10.51;100.00;93657.09;2555107;23;20008;-80
2023/07/18 01:18:38;;;;;;;7.75;4.68;;;;;;;10.55;100.00;93655.16;2561415;23;20011;-80
2023/07/18 01:19:50;;;;;;;12.45;5.03;;;;;;;10.52;100.00;93650.59;2571320;23;20027;-80
2023/07/18 01:21:02;;;;;;;13.63;4.60;;;;;;;10.52;100.00;93645.25;2575983;23;20008;-77
2023/07/18 01:22:08;;;;;;;8.88;4.57;;;;;;;10.47;100.00;93643.03;2586567;23;20059;-79
2023/07/18 01:23:21;;;;;;;9.70;4.38;;;;;;;10.41;100.00;93643.91;2575816;23;20080;-80
2023/07/18 01:24:37;;;;;;;7.72;3.88;;;;;;;10.36;100.00;93653.13;2564759;23;20069;-79
2023/07/18 01:25:49;;;;;;;10.43;5.07;;;;;;;10.38;100.00;93642.00;2579150;23;20010;-79
2023/07/18 01:27:02;;;;;;;9.35;4.25;;;;;;;10.34;100.00;93636.72;2555939;23;20419;-80
2023/07/18 01:28:11;;;;;;;11.30;4.22;;;;;;;10.30;100.00;93644.75;2545704;23;20016;-80
2023/07/18 01:29:19;;;;;;;6.22;3.88;;;;;;;10.26;100.00;93644.03;2545350;23;20006;-80
2023/07/18 01:30:30;;;;;;;10.25;4.05;;;;;;;10.27;100.00;93640.25;2546702;23;20211;-80
2023/07/18 01:31:43;;;;;;;7.72;4.18;;;;;;;10.26;100.00;93632.59;2554995;23;20005;-80
2023/07/18 01:32:56;;;;;;;9.13;4.32;;;;;;;10.34;100.00;93640.13;2557969;23;20080;-79
2023/07/18 01:34:08;;;;;;;7.55;3.83;;;;;;;10.39;100.00;93638.94;2545860;23;20007;-80
2023/07/18 01:35:13;;;;;;;7.68;3.85;;;;;;;10.40;100.00;93637.78;2534941;23;20037;-79
2023/07/18 01:36:28;;;;;;;8.65;4.43;;;;;;;10.29;100.00;93640.59;2532483;23;20121;-81
2023/07/18 01:37:48;;;;;;;8.07;4.10;;;;;;;10.21;100.00;93633.78;2536593;23;20125;-80
2023/07/18 01:39:00;;;;;;;8.00;4.28;;;;;;;10.28;100.00;93638.31;2538578;23;20112;-80
2023/07/18 01:40:14;;;;;;;10.52;4.07;;;;;;;10.23;100.00;93644.84;2534978;23;20080;-80
2023/07/18 01:41:25;;;;;;;10.57;4.35;;;;;;;10.16;100.00;93644.16;2545488;23;20013;-81
2023/07/18 01:42:32;;;;;;;8.93;3.88;;;;;;;10.20;100.00;93644.88;2547240;23;20332;-80
2023/07/18 01:43:41;;;;;;;9.70;4.70;;;;;;;10.14;100.00;93639.22;2543849;23;20009;-80
2023/07/18 01:44:48;;;;;;;10.02;4.38;;;;;;;10.17;100.00;93637.66;2545966;23;20020;-79
2023/07/18 01:46:08;;;;;;;8.55;4.70;;;;;;;10.22;100.00;93634.53;2544590;23;20040;-79
2023/07/18 01:47:18;;;;;;;9.45;4.18;;;;;;;10.23;100.00;93644.09;2538326;23;20085;-80
2023/07/18 01:48:30;;;;;;;8.50;4.03;;;;;;;10.23;100.00;93630.72;2547288;23;20009;-80
2023/07/18 01:49:40;;;;;;;9.77;4.93;;;;;;;10.20;100.00;93634.94;2557774;23;20012;-80
2023/07/18 01:50:54;;;;;;;8.07;4.07;;;;;;;10.25;100.00;93636.44;2556906;23;20498;-79
2023/07/18 01:52:07;;;;;;;8.80;4.65;;;;;;;10.17;100.00;93635.72;2545636;23;20052;-79
2023/07/18 01:53:18;;;;;;;7.05;4.45;;;;;;;10.14;100.00;93628.53;2547869;23;20006;-80
2023/07/18 01:54:30;;;;;;;9.70;4.10;;;;;;;10.00;100.00;93623.34;2567993;23;20034;-80
2023/07/18 01:55:41;;;;;;;8.02;4.20;;;;;;;9.95;100.00;93629.13;2570822;23;20100;-79
2023/07/18 01:56:51;;;;;;;10.82;4.30;;;;;;;10.00;100.00;93626.75;2567495;23;20418;-80
2023/07/18 01:58:00;;;;;;;;;;;;;;;10.05;100.00;93620.22;2545553;23;20028;-79
2023/07/18 01:59:14;;;;;;;8.98;3.80;;;;;;;10.09;100.00;93621.69;2546080;23;19905;-81
2023/07/18 02:00:25;;;;;;;8.32;3.90;;;;;;;10.23;100.00;93618.13;2545745;23;20040;-79
2023/07/18 02:01:39;;;;;;;10.45;4.47;;;;;;;10.11;100.00;93617.91;2547438;23;20059;-81
2023/07/18 02:02:56;;;;;;;9.32;3.78;;;;;;;10.14;100.00;93619.75;2570931;23;20010;-82
2023/07/18 02:04:09;;;;;;;10.43;4.22;;;;;;;10.08;100.00;93620.19;2567699;23;20004;-81
2023/07/18 02:05:22;;;;;;;10.13;4.00;;;;;;;9.96;100.00;93620.69;2558696;23;20133;-79
2023/07/18 02:06:35;;;;;;;6.28;3.63;;;;;;;10.00;100.00;93623.34;2566916;23;20071;-79
2023/07/18 02:07:48;;;;;;;10.65;3.63;;;;;;;9.98;100.00;93620.31;2579714;23;20028;-80
2023/07/18 02:09:04;;;;;;;7.18;4.07;;;;;;;9.99;100.00;93622.59;2573086;23;20022;-80
2023/07/18 02:10:15;;;;;;;8.32;4.00;;;;;;;10.09;100.00;93621.69;2562077;23;20510;-78
2023/07/18 02:11:26;;;;;;;6.60;3.80;;;;;;;10.03;100.00;93625.97;2547885;23;20049;-80
2023/07/18 02:12:38;;;;;;;6.40;3.67;;;;;;;9.99;100.00;93622.59;2548659;23;20005;-79
2023/07/18 02:13:50;;;;;;;8.50;3.78;;;;;;;9.99;100.00;93617.25;2558875;23;20005;-79
2023/07/18 02:15:02;;;;;;;8.60;3.67;;;;;;;9.99;100.00;93614.56;2546156;23;20019;-79
2023/07/18 02:16:13;;;;;;;8.88;3.85;;;;;;;9.96;100.00;93619.94;2535861;23;20060;-80
2023/07/18 02:17:24;;;;;;;8.00;3.78;;;;;;;9.92;100.00;93622.69;2546680;23;20423;-80
2023/07/18 02:18:35;;;;;;;8.45;3.90;;;;;;;9.88;100.00;93619.28;2556991;23;20088;-80
2023/07/18 02:19:55;;;;;;;6.65;3.47;;;;;;;9.90;100.00;93622.31;2568493;23;20008;-80
2023/07/18 03:38:09;;;;;;;6.32;3.20;;;;;;;9.22;100.00;93601.63;2575666;22;20024;-78
2023/07/18 03:39:22;;;;;;;8.88;3.30;;;;;;;9.26;100.00;93601.59;2569466;23;20009;-79
2023/07/18 03:40:31;;;;;;;10.68;3.60;;;;;;;9.26;100.00;93598.91;2556561;23;20075;-78
2023/07/18 03:41:45;;;;;;;5.78;3.85;;;;;;;9.21;100.00;93594.00;2558432;23;20005;-80
2023/07/18 03:42:57;;;;;;;9.18;4.00;;;;;;;9.15;100.00;93598.25;2568054;23;20434;-79
2023/07/18 03:44:08;;;;;;;13.55;4.40;;;;;;;9.18;100.00;93592.91;2545869;23;20010;-78
2023/07/18 03:45:20;;;;;;;9.32;3.75;;;;;;;9.21;100.00;93599.34;2547437;23;20118;-79
2023/07/18 03:46:31;;;;;;;5.35;3.17;;;;;;;9.25;100.00;93589.41;2568467;23;20059;-81
2023/07/18 03:47:42;;;;;;;6.10;3.47;;;;;;;9.22;100.00;93592.84;2569444;23;20008;-80
2023/07/18 03:48:54;;;;;;;11.15;3.70;;;;;;;9.22;100.00;93588.31;2568447;23;20477;-80
2023/07/18 03:50:05;;;;;;;5.35;3.25;;;;;;;9.26;100.00;93593.59;2568017;23;20005;-79
2023/07/18 03:51:15;;;;;;;7.97;3.45;;;;;;;9.34;100.00;93587.78;2568262;23;20014;-79
2023/07/18 03:52:22;;;;;;;;;;;;;;;9.26;100.00;93596.25;2545978;23;20001;-80
2023/07/18 03:53:33;;;;;;;6.05;2.97;;;;;;;9.30;100.00;93591.66;2546230;23;19917;-79
2023/07/18 03:54:43;;;;;;;10.38;3.70;;;;;;;9.29;100.00;93595.47;2545570;23;20025;-79
2023/07/18 03:56:06;;;;;;;7.10;3.03;;;;;;;9.26;100.00;93596.25;2538677;23;20005;-79
2023/07/18 03:57:15;;;;;;;8.38;3.00;;;;;;;9.26;100.00;93585.56;2561186;23;20058;-79
2023/07/18 03:58:25;;;;;;;8.85;3.10;;;;;;;9.27;100.00;93592.44;2568897;23;20039;-79
2023/07/18 03:59:33;;;;;;;6.40;2.88;;;;;;;9.25;100.00;93595.50;2558060;23;20017;-79
2023/07/18 04:00:43;;;;;;;5.97;2.83;;;;;;;9.37;100.00;93591.59;2568250;23;20009;-81
2023/07/18 04:01:53;;;;;;;9.43;2.80;;;;;;;9.36;100.00;93584.00;2567970;23;20009;-80
2023/07/18 04:03:05;;;;;;;7.22;3.30;;;;;;;9.34;100.00;93579.03;2556346;23;20019;-81
2023/07/18 04:04:16;;;;;;;8.25;3.25;;;;;;;9.35;100.00;93583.22;2536064;23;20001;-79
2023/07/18 04:05:27;;;;;;;10.10;3.78;;;;;;;9.26;100.00;93591.69;2557681;23;20005;-80
2023/07/18 04:06:43;;;;;;;6.00;3.15;;;;;;;9.29;100.00;93576.78;2558601;23;20005;-80
2023/07/18 04:07:51;;;;;;;7.57;2.83;;;;;;;9.31;100.00;93571.84;2559093;23;20052;-81
2023/07/18 04:09:00;;;;;;;9.10;3.13;;;;;;;9.36;100.00;93579.41;2544483;23;20029;-79
2023/07/18 04:10:17;;;;;;;8.40;3.35;;;;;;;9.37;100.00;93578.25;2545347;23;20002;-80
2023/07/18 04:11:32;;;;;;;6.72;3.17;;;;;;;9.49;100.00;93577.00;2550044;23;20029;-78
2023/07/18 04:12:44;;;;;;;7.47;3.00;;;;;;;9.45;100.00;93577.03;2558933;23;20009;-80
2023/07/18 04:13:49;;;;;;;12.93;3.25;;;;;;;9.33;100.00;93570.28;2558020;23;20012;-78
2023/07/18 04:14:59;;;;;;;5.53;3.10;;;;;;;9.38;100.00;93571.75;2556816;23;20000;-79
2023/07/18 04:16:10;;;;;;;6.45;3.20;;;;;;;9.36;100.00;93568.72;2566083;23;20008;-80
2023/07/18 04:17:19;;;;;;;6.93;3.35;;;;;;;9.31;100.00;93569.16;2543710;23;20009;-78
2023/07/18 04:18:30;;;;;;;6.13;3.15;;;;;;;9.33;100.00;93566.84;2533518;23;20385;-80
2023/07/18 04:19:41;;;;;;;9.57;3.25;;;;;;;9.36;100.00;93573.31;2535379;23;20452;-79
2023/07/18 04:20:52;;;;;;;8.32;2.90;;;;;;;9.35;100.00;93569.91;2532941;23;20459;-80
2023/07/18 04:22:04;;;;;;;8.52;3.00;;;;;;;9.39;100.00;93569.84;2535190;23;20030;-79
2023/07/18 04:23:18;;;;;;;8.25;3.30;;;;;;;9.37;100.00;93567.56;2555449;23;20511;-79
2023/07/18 04:24:30;;;;;;;6.57;3.38;;;;;;;9.39;100.00;93575.16;2546028;23;20092;-80
2023/07/18 04:25:59;;;;;;;8.35;3.28;;;;;;;9.41;100.00;93572.88;2545228;23;20435;-78
2023/07/18 04:27:10;;;;;;;7.22;3.13;;;;;;;9.43;100.00;93560.66;2536375;23;20024;-79
2023/07/18 04:28:21;;;;;;;5.78;3.17;;;;;;;9.46;100.00;93567.88;2534927;23;20017;-79
2023/07/18 04:29:32;;;;;;;6.95;3.20;;;;;;;9.56;100.00;93568.91;2545515;23;20010;-78
2023/07/18 04:30:44;;;;;;;7.55;3.35;;;;;;;9.61;100.00;93560.44;2555408;23;20388;-80
2023/07/18 04:31:54;;;;;;;9.88;3.17;;;;;;;9.66;100.00;93565.38;2542957;23;20005;-79
2023/07/18 04:33:04;;;;;;;5.93;3.10;;;;;;;9.67;100.00;93558.88;2546981;23;20353;-80
2023/07/18 04:34:15;;;;;;;6.55;2.85;;;;;;;9.69;100.00;93563.81;2555236;23;20024;-80
2023/07/18 04:35:29;;;;;;;8.77;3.20;;;;;;;9.69;100.00;93556.56;2544599;23;20005;-80
2023/07/18 04:36:40;;;;;;;9.90;3.20;;;;;;;9.74;100.00;93555.34;2545604;23;20057;-79
2023/07/18 04:37:48;;;;;;;8.57;3.20;;;;;;;9.78;100.00;93553.41;2542698;23;20009;-80
2023/07/18 04:38:59;;;;;;;6.45;3.60;;;;;;;9.76;100.00;93548.47;2544238;23;20017;-79
2023/07/18 04:40:11;;;;;;;6.15;3.30;;;;;;;9.85;100.00;93548.00;2545760;23;20008;-79
2023/07/18 04:41:25;;;;;;;4.95;2.78;;;;;;;9.88;100.00;93546.41;2556513;23;19997;-79
2023/07/18 04:42:38;;;;;;;5.55;3.00;;;;;;;9.88;100.00;93552.53;2555786;23;20451;-80
2023/07/18 04:43:47;;;;;;;8.75;3.15;;;;;;;9.87;100.00;93544.91;2555689;23;20004;-80
2023/07/18 04:44:57;;;;;;;7.57;3.13;;;;;;;9.90;100.00;93546.78;2555508;23;20414;-79
2023/07/18 04:46:10;;;;;;;6.95;2.92;;;;;;;9.92;100.00;93539.91;2532512;23;20028;-78
2023/07/18 04:47:20;;;;;;;6.38;3.47;;;;;;;9.97;100.00;93546.72;2545946;23;20005;-79
2023/07/18 04:48:30;;;;;;;6.97;3.08;;;;;;;9.97;100.00;93542.13;2542909;23;20009;-79
2023/07/18 04:49:44;;;;;;;7.10;3.50;;;;;;;10.04;100.00;93546.59;2523160;23;20015;-79
2023/07/18 04:50:58;;;;;;;6.20;2.90;;;;;;;10.07;100.00;93538.56;2536016;23;20065;-79
2023/07/18 04:52:09;;;;;;;8.93;3.67;;;;;;;10.10;100.00;93545.03;2545917;23;20016;-80
2023/07/18 04:53:20;;;;;;;7.28;2.72;;;;;;;10.13;100.00;93543.44;2545399;23;20025;-79
2023/07/18 04:54:30;;;;;;;5.93;3.13;;;;;;;10.15;100.00;93549.91;2542655;23;20009;-79
2023/07/18 04:55:42;;;;;;;5.22;3.10;;;;;;;10.16;100.00;93543.41;2531902;23;20005;-79
2023/07/18 04:56:53;;;;;;;5.38;2.92;;;;;;;10.19;100.00;93541.84;2534730;23;20408;-79
2023/07/18 04:58:08;;;;;;;6.90;3.28;;;;;;;10.22;100.00;93547.13;2545604;23;20009;-79
2023/07/18 04:59:20;;;;;;;9.10;3.53;;;;;;;10.32;100.00;93548.19;2546417;23;20009;-79
2023/07/18 05:00:34;;;;;;;7.25;3.70;;;;;;;10.41;100.00;93537.75;2543475;23;20360;-80
2023/07/18 05:01:44;;;;;;;8.15;3.72;;;;;;;10.43;100.00;93545.34;2536661;23;20005;-79
2023/07/18 05:02:58;;;;;;;10.80;3.38;;;;;;;10.54;100.00;93543.31;2545877;23;20010;-79
2023/07/18 05:04:09;;;;;;;9.30;3.88;;;;;;;10.64;100.00;93552.31;2543387;23;20093;-79
2023/07/18 05:05:17;;;;;;;6.50;3.63;;;;;;;10.69;100.00;93551.84;2534941;23;20527;-80
2023/07/18 05:06:29;;;;;;;10.90;3.80;;;;;;;10.71;100.00;93552.97;2544484;23;20013;-79
2023/07/18 05:07:44;;;;;;;7.78;3.35;;;;;;;10.81;100.00;93548.63;2532476;23;20271;-78
2023/07/18 05:08:56;;;;;;;9.98;3.72;;;;;;;10.88;100.00;93547.72;2537862;23;20009;-80
2023/07/18 05:10:06;;;;;;;7.07;3.33;;;;;;;10.92;100.00;93543.84;2556552;23;20075;-80
2023/07/18 05:11:18;;;;;;;6.18;3.90;;;;;;;10.97;100.00;93554.06;2555932;23;20001;-80
2023/07/18 05:12:23;;;;;;;13.13;4.28;;;;;;;11.02;100.00;93552.88;2543487;23;20006;-80
2023/07/18 05:13:34;;;;;;;10.63;3.83;;;;;;;11.05;100.00;93544.00;2544083;23;20428;-80
2023/07/18 05:14:46;;;;;;;11.73;4.32;;;;;;;11.10;100.00;93541.63;2532681;23;20060;-78
2023/07/18 05:16:01;;;;;;;13.25;4.07;;;;;;;11.16;100.00;93541.19;2524439;23;20007;-81
2023/07/18 05:17:20;;;;;;;12.40;4.60;;;;;;;11.21;100.00;93538.03;2524332;23;20014;-79
2023/07/18 05:18:30;;;;;;;11.45;4.32;;;;;;;11.28;100.00;93527.97;2534665;23;20008;-79
2023/07/18 05:19:40;;;;;;;10.98;4.82;;;;;;;11.32;100.00;93527.88;2545408;23;20099;-80
2023/07/18 05:20:55;;;;;;;10.40;4.35;;;;;;;11.33;100.00;93526.72;2533225;23;20032;-79
2023/07/18 05:22:04;;;;;;;13.38;4.78;;;;;;;11.40;100.00;93529.25;2524922;23;20006;-81
2023/07/18 05:23:14;;;;;;;11.57;4.53;;;;;;;11.42;100.00;93531.53;2522331;23;20082;-79
2023/07/18 05:24:25;;;;;;;16.67;4.68;;;;;;;11.45;100.00;93525.34;2524343;23;20070;-80
2023/07/18 05:25:36;;;;;;;16.02;4.75;;;;;;;11.49;100.00;93532.16;2545553;23;20043;-79
2023/07/18 05:26:49;;;;;;;9.52;4.20;;;;;;;11.55;100.00;93527.84;2532803;23;20009;-79
2023/07/18 05:27:58;;;;;;;9.35;3.95;;;;;;;11.59;100.00;93528.53;2523485;23;20010;-79
2023/07/18 05:29:10;;;;;;;14.45;4.78;;;;;;;11.65;100.00;93520.03;2522230;23;20068;-81
2023/07/18 05:30:21;;;;;;;15.18;4.85;;;;;;;11.70;100.00;93525.66;2535836;23;20010;-80
2023/07/18 05:31:29;;;;;;;14.27;5.28;;;;;;;11.78;100.00;93527.03;2543008;23;20227;-79
2023/07/18 05:32:39;;;;;;;14.63;5.47;;;;;;;11.86;100.00;93527.66;2544909;23;20009;-79
2023/07/18 05:33:50;;;;;;;16.88;5.25;;;;;;;11.91;100.00;93519.16;2555555;23;20013;-81
2023/07/18 05:34:59;;;;;;;17.50;4.28;;;;;;;11.95;100.00;93516.41;2562206;23;20530;-79
2023/07/18 05:36:10;;;;;;;14.65;4.85;;;;;;;12.00;100.00;93516.66;2553617;23;20029;-79
2023/07/18 05:37:21;;;;;;;13.38;4.80;;;;;;;12.07;100.00;93513.84;2562689;23;20024;-80
2023/07/18 05:38:34;;;;;;;12.98;4.70;;;;;;;12.13;100.00;93511.41;2538160;23;20022;-80
2023/07/18 05:39:45;;;;;;;17.60;4.65;;;;;;;12.14;100.00;93509.50;2551726;23;20012;-79
2023/07/18 05:40:56;;;;;;;14.65;4.38;;;;;;;12.22;100.00;93508.91;2545862;23;20234;-80
2023/07/18 05:42:06;;;;;;;13.05;5.15;;;;;;;12.29;100.00;93511.47;2547260;23;20029;-79
2023/07/18 05:43:18;;;;;;;10.20;3.95;;;;;;;12.35;100.00;93517.06;2557145;23;20080;-80
2023/07/18 05:44:29;;;;;;;13.38;4.60;;;;;;;12.41;100.00;93509.28;2555553;23;20075;-79
2023/07/18 05:45:44;;;;;;;13.93;4.85;;;;;;;12.50;100.00;93512.88;2533769;23;20002;-80
2023/07/18 05:46:59;;;;;;;15.52;4.78;;;;;;;12.56;100.00;93515.84;2524141;23;20006;-79
2023/07/18 05:48:13;;;;;;;15.82;5.00;;;;;;;12.62;100.00;93511.47;2524897;23;20013;-80
2023/07/18 05:49:23;;;;;;;16.50;5.38;;;;;;;12.66;100.00;93512.16;2529877;23;20009;-80
2023/07/18 05:50:33;;;;;;;16.40;5.53;;;;;;;12.72;100.00;93509.72;2549210;23;20200;-79
2023/07/18 05:51:42;;;;;;;25.50;6.15;;;;;;;12.80;100.00;93517.19;2541407;23;20132;-80
2023/07/18 05:52:53;;;;;;;14.80;5.00;;;;;;;12.94;100.00;93494.63;2541907;23;20005;-79
2023/07/18 05:54:04;;;;;;;14.57;4.70;;;;;;;13.02;100.00;93500.56;2527111;23;20009;-79
2023/07/18 05:55:15;;;;;;;15.30;4.80;;;;;;;13.11;100.00;93492.66;2532812;23;20005;-80
2023/07/18 05:56:28;;;;;;;16.23;5.28;;;;;;;13.21;100.00;93496.25;2539955;23;20009;-80
2023/07/18 05:57:39;;;;;;;17.60;4.78;;;;;;;13.27;100.00;93505.34;2543278;23;20503;-79
2023/07/18 05:58:54;;;;;;;16.77;5.05;;;;;;;13.33;100.00;93503.63;2552093;23;20062;-80
2023/07/18 06:00:10;;;;;;;14.88;5.07;;;;;;;13.43;100.00;93504.53;2552654;23;20017;-80
2023/07/18 06:01:21;;;;;;;15.77;4.55;;;;;;;13.51;100.00;93506.59;2540626;23;20013;-81
2023/07/18 06:02:33;;;;;;;14.48;4.95;;;;;;;13.60;100.00;93509.44;2531929;23;20009;-79
2023/07/18 06:03:44;;;;;;;13.88;5.05;;;;;;;13.73;100.00;93508.72;2530087;23;20012;-80
2023/07/18 06:04:55;;;;;;;21.08;5.13;;;;;;;13.80;100.00;93503.16;2529459;23;20021;-79
2023/07/18 06:06:07;;;;;;;16.02;4.97;;;;;;;13.90;100.00;93496.72;2531860;23;20009;-79
2023/07/18 06:07:14;;;;;;;13.85;4.45;;;;;;;14.00;100.00;93505.66;2551197;23;20299;-79
2023/07/18 06:08:22;;;;;;;13.00;3.90;;;;;;;14.07;100.00;93498.16;2553244;23;20095;-80
2023/07/18 06:09:32;;;;;;;13.80;4.28;;;;;;;14.15;100.00;93504.09;2552612;23;20080;-79
2023/07/18 06:10:43;;;;;;;12.98;3.83;;;;;;;14.22;100.00;93498.47;2553112;23;20005;-80
2023/07/18 06:11:53;;;;;;;11.27;3.28;;;;;;;14.32;100.00;93494.00;2555144;23;20031;-80
2023/07/18 06:13:03;;;;;;;7.10;3.30;;;;;;;14.41;100.00;93494.09;2552552;23;20682;-80
2023/07/18 06:14:13;;;;;;;5.38;3.22;;;;;;;14.48;100.00;93493.91;2552517;23;20453;-80
2023/07/18 06:15:19;;;;;;;7.72;3.00;;;;;;;14.52;100.00;93496.47;2552784;23;20024;-80
2023/07/18 06:16:33;;;;;;;10.60;3.10;;;;;;;14.55;100.00;93488.31;2552020;23;20012;-80
2023/07/18 06:17:44;;;;;;;5.65;2.60;;;;;;;14.67;100.00;93491.44;2530817;23;20010;-80
2023/07/18 06:18:54;;;;;;;5.50;2.40;;;;;;;14.65;100.00;93493.78;2536374;23;20013;-79
2023/07/18 06:20:12;;;;;;;5.57;2.45;;;;;;;14.63;100.00;93485.41;2541475;23;20020;-79
2023/07/18 06:21:26;;;;;;;5.25;2.13;;;;;;;14.65;100.00;93491.84;2552687;23;20380;-80
2023/07/18 06:22:39;;;;;;;11.00;2.53;;;;;;;14.71;100.00;93486.69;2551315;23;20009;-80
2023/07/18 06:23:51;;;;;;;3.60;2.20;;;;;;;14.74;100.00;93481.16;2546957;23;20417;-79
2023/07/18 06:25:03;;;;;;;6.43;2.20;;;;;;;14.91;100.00;93494.50;2552982;23;20005;-80
2023/07/18 06:26:14;;;;;;;7.15;2.50;;;;;;;15.09;100.00;93491.97;2543113;23;20052;-80
2023/07/18 06:27:28;;;;;;;9.07;2.40;;;;;;;15.13;100.00;93481.09;2529815;23;20093;-79
2023/07/18 06:28:42;;;;;;;2.55;1.80;;;;;;;15.19;100.00;93484.72;2533919;23;20105;-80
2023/07/18 06:29:54;;;;;;;4.97;2.00;;;;;;;15.31;100.00;93483.94;2530736;23;20013;-79
2023/07/18 06:31:06;;;;;;;4.10;2.20;;;;;;;15.41;100.00;93487.44;2541930;23;20014;-80
2023/07/18 06:32:16;;;;;;;6.13;1.80;;;;;;;15.42;100.00;93484.34;2553877;23;20103;-80
2023/07/18 06:33:27;;;;;;;4.95;2.10;;;;;;;15.43;100.00;93485.09;2552749;23;20012;-79
2023/07/18 06:34:40;;;;;;;4.75;1.83;;;;;;;15.46;100.00;93492.31;2554231;23;20009;-80
2023/07/18 06:35:59;;;;;;;8.38;2.35;;;;;;;15.48;100.00;93484.53;2540025;23;20014;-80
2023/07/18 06:37:08;;;;;;;6.30;2.22;;;;;;;15.51;100.00;93481.72;2544169;23;20005;-80
2023/07/18 06:38:17;;;;;;;4.18;2.10;;;;;;;15.77;100.00;93478.94;2541723;23;20043;-81
2023/07/18 06:39:26;;;;;;;5.03;2.28;;;;;;;15.79;100.00;93485.38;2553403;23;20151;-80
2023/07/18 06:40:37;;;;;;;6.90;2.25;;;;;;;15.81;100.00;93487.66;2539579;23;20089;-79
2023/07/18 06:41:46;;;;;;;;;;;;;;;15.89;100.00;93493.50;2534177;23;20013;-79
2023/07/18 06:42:54;;;;;;;5.90;2.08;;;;;;;15.93;100.00;93496.84;2542300;23;20225;-80
2023/07/18 06:44:05;;;;;;;5.47;2.00;;;;;;;15.91;100.00;93494.59;2542060;23;20492;-79
2023/07/18 06:45:12;;;;;;;4.63;1.70;;;;;;;15.94;100.00;93491.03;2540438;23;20381;-80
2023/07/18 06:46:22;;;;;;;3.67;2.00;;;;;;;16.09;100.00;93497.38;2541756;23;20085;-79
2023/07/18 06:47:31;;;;;;;7.43;1.90;;;;;;;16.11;100.00;93489.63;2542239;23;20309;-79
2023/07/18 06:48:33;;;;;;;5.97;2.28;;;;;;;16.21;100.00;93489.66;2540309;23;20442;-80
2023/07/18 06:49:42;;;;;;;4.55;1.88;;;;;;;16.38;100.00;93484.78;2540486;23;20076;-79
2023/07/18 06:50:53;;;;;;;5.55;2.05;;;;;;;16.20;100.00;93480.81;2529896;23;20005;-79